DLH46P LOWS-EDDF
Flight info
| Callsign | DLH46P |
|---|---|
| Flight time | 0h 43m |
| Altitude | 30000 |
| Route | INROM1A/33 INROM DCT SIMBA Y700 NENUM T161 DEBHI DEBHI1B |
| Aircraft | A319/M-SDE2E3FGIJ1LORWXYZ/HB1 |
Departure
| Time | 2026-05-04 19:29 |
|---|---|
| Airport | Salzburg Airport (LOWS) |
Arrival
| Time | 2026-05-04 20:12 |
|---|---|
| Airport | Frankfurt Main Airport (EDDF) |
| Time | Latitude | Longitude | Altitude | Speed | Heading |
|---|---|---|---|---|---|
| 2026-05-04 19:04 | 47.79145 | 12.99921 | 1422 ft | 0 kts | 281° |
| 2026-05-04 19:04 | 47.79145 | 12.99920 | 1422 ft | 0 kts | 281° |
| 2026-05-04 19:05 | 47.79198 | 12.99894 | 1422 ft | 0 kts | 282° |
| 2026-05-04 19:20 | 47.79198 | 12.99898 | 1422 ft | 3 kts | 281° |
| 2026-05-04 19:20 | 47.79194 | 12.99937 | 1422 ft | 4 kts | 270° |
| 2026-05-04 19:21 | 47.79194 | 12.99947 | 1422 ft | 0 kts | 265° |
| 2026-05-04 19:21 | 47.79198 | 12.99894 | 1422 ft | 0 kts | 282° |
| 2026-05-04 19:23 | 47.79195 | 12.99922 | 1422 ft | 4 kts | 276° |
| 2026-05-04 19:23 | 47.79194 | 12.99961 | 1422 ft | 4 kts | 259° |
| 2026-05-04 19:24 | 47.79203 | 12.99992 | 1422 ft | 4 kts | 200° |
| 2026-05-04 19:24 | 47.79210 | 12.99994 | 1422 ft | 0 kts | 156° |
| 2026-05-04 19:26 | 47.79208 | 12.99996 | 1422 ft | 2 kts | 156° |
| 2026-05-04 19:26 | 47.79182 | 13.00013 | 1422 ft | 7 kts | 156° |
| 2026-05-04 19:26 | 47.79122 | 13.00051 | 1422 ft | 12 kts | 156° |
| 2026-05-04 19:26 | 47.79032 | 13.00109 | 1422 ft | 16 kts | 153° |
| 2026-05-04 19:27 | 47.78962 | 13.00227 | 1422 ft | 15 kts | 117° |
| 2026-05-04 19:27 | 47.78931 | 13.00378 | 1420 ft | 16 kts | 139° |
| 2026-05-04 19:27 | 47.78827 | 13.00447 | 1420 ft | 18 kts | 156° |
| 2026-05-04 19:27 | 47.78703 | 13.00526 | 1420 ft | 20 kts | 157° |
| 2026-05-04 19:28 | 47.78575 | 13.00609 | 1420 ft | 20 kts | 153° |
| 2026-05-04 19:28 | 47.78547 | 13.00779 | 1420 ft | 20 kts | 64° |
| 2026-05-04 19:28 | 47.78632 | 13.00835 | 1423 ft | 14 kts | 336° |
| 2026-05-04 19:28 | 47.78746 | 13.00764 | 1421 ft | 36 kts | 337° |
| 2026-05-04 19:29 | 47.79270 | 13.00429 | 1421 ft | 126 kts | 336° |
| 2026-05-04 19:29 | 47.80238 | 12.99810 | 1773 ft | 161 kts | 336° |
| 2026-05-04 19:29 | 47.81274 | 12.99152 | 2627 ft | 161 kts | 338° |
| 2026-05-04 19:29 | 47.82345 | 12.98558 | 3186 ft | 173 kts | 350° |
| 2026-05-04 19:30 | 47.83549 | 12.99029 | 3471 ft | 196 kts | 36° |
| 2026-05-04 19:30 | 47.84669 | 13.00399 | 3800 ft | 221 kts | 39° |
| 2026-05-04 19:30 | 47.85948 | 13.01899 | 4291 ft | 246 kts | 38° |
| 2026-05-04 19:30 | 47.87374 | 13.03521 | 4869 ft | 269 kts | 37° |
| 2026-05-04 19:31 | 47.88940 | 13.05127 | 5707 ft | 279 kts | 26° |
| 2026-05-04 19:31 | 47.90827 | 13.05855 | 6597 ft | 284 kts | 1° |
| 2026-05-04 19:31 | 47.92808 | 13.05624 | 7544 ft | 288 kts | 352° |
| 2026-05-04 19:31 | 47.94811 | 13.05274 | 8507 ft | 292 kts | 351° |
| 2026-05-04 19:32 | 47.96844 | 13.04904 | 9465 ft | 297 kts | 350° |
| 2026-05-04 19:32 | 47.98915 | 13.04527 | 10298 ft | 306 kts | 350° |
| 2026-05-04 19:32 | 48.00554 | 13.04229 | 10581 ft | 324 kts | 351° |
| 2026-05-04 19:32 | 48.02843 | 13.03815 | 11192 ft | 337 kts | 351° |
| 2026-05-04 19:33 | 48.05195 | 13.03396 | 12011 ft | 343 kts | 351° |
| 2026-05-04 19:33 | 48.07585 | 13.02977 | 12842 ft | 349 kts | 351° |
| 2026-05-04 19:33 | 48.10017 | 13.02553 | 13660 ft | 354 kts | 351° |
| 2026-05-04 19:33 | 48.12480 | 13.02124 | 14401 ft | 359 kts | 351° |
| 2026-05-04 19:34 | 48.14971 | 13.01686 | 15179 ft | 362 kts | 351° |
| 2026-05-04 19:34 | 48.17483 | 13.01245 | 15949 ft | 365 kts | 351° |
| 2026-05-04 19:34 | 48.20012 | 13.00797 | 16713 ft | 368 kts | 351° |
| 2026-05-04 19:34 | 48.22563 | 13.00341 | 17479 ft | 371 kts | 351° |
| 2026-05-04 19:35 | 48.25134 | 12.99881 | 18236 ft | 374 kts | 351° |
| 2026-05-04 19:35 | 48.27725 | 12.99422 | 18889 ft | 377 kts | 351° |
| 2026-05-04 19:35 | 48.30336 | 12.98961 | 19543 ft | 380 kts | 352° |
| 2026-05-04 19:35 | 48.32971 | 12.98499 | 20208 ft | 382 kts | 352° |
| 2026-05-04 19:36 | 48.35625 | 12.98031 | 20865 ft | 386 kts | 351° |
| 2026-05-04 19:36 | 48.38301 | 12.97554 | 21490 ft | 390 kts | 351° |
| 2026-05-04 19:36 | 48.41005 | 12.97067 | 22101 ft | 393 kts | 351° |
| 2026-05-04 19:36 | 48.43699 | 12.96585 | 22722 ft | 396 kts | 351° |
| 2026-05-04 19:37 | 48.46450 | 12.96094 | 23350 ft | 400 kts | 350° |
| 2026-05-04 19:37 | 48.49147 | 12.95116 | 23872 ft | 400 kts | 336° |
| 2026-05-04 19:37 | 48.51576 | 12.93108 | 24377 ft | 399 kts | 320° |
| 2026-05-04 19:37 | 48.53510 | 12.90146 | 24864 ft | 397 kts | 303° |
| 2026-05-04 19:38 | 48.54837 | 12.86502 | 25357 ft | 397 kts | 293° |
| 2026-05-04 19:38 | 48.56028 | 12.82729 | 25854 ft | 400 kts | 293° |
| 2026-05-04 19:38 | 48.57223 | 12.78923 | 26341 ft | 402 kts | 293° |
| 2026-05-04 19:38 | 48.58424 | 12.75091 | 26828 ft | 405 kts | 293° |
| 2026-05-04 19:39 | 48.59632 | 12.71237 | 27302 ft | 407 kts | 293° |
| 2026-05-04 19:39 | 48.60849 | 12.67357 | 27783 ft | 410 kts | 293° |
| 2026-05-04 19:39 | 48.62074 | 12.63449 | 28258 ft | 412 kts | 293° |
| 2026-05-04 19:39 | 48.63307 | 12.59516 | 28681 ft | 417 kts | 293° |
| 2026-05-04 19:40 | 48.64149 | 12.56825 | 28784 ft | 423 kts | 293° |
| 2026-05-04 19:40 | 48.65421 | 12.52757 | 28900 ft | 433 kts | 293° |
| 2026-05-04 19:40 | 48.66723 | 12.48586 | 28911 ft | 444 kts | 293° |
| 2026-05-04 19:41 | 48.69355 | 12.40109 | 28909 ft | 450 kts | 293° |
| 2026-05-04 19:41 | 48.72013 | 12.31525 | 28912 ft | 451 kts | 293° |
| 2026-05-04 19:42 | 48.74671 | 12.22933 | 28914 ft | 450 kts | 293° |
| 2026-05-04 19:42 | 48.77313 | 12.14348 | 28915 ft | 449 kts | 293° |
| 2026-05-04 19:43 | 48.79951 | 12.05754 | 28926 ft | 449 kts | 293° |
| 2026-05-04 19:43 | 48.82583 | 11.97156 | 28927 ft | 449 kts | 293° |
| 2026-05-04 19:44 | 48.85208 | 11.88545 | 28946 ft | 449 kts | 292° |
| 2026-05-04 19:44 | 48.87802 | 11.79985 | 28940 ft | 450 kts | 292° |
| 2026-05-04 19:45 | 48.90413 | 11.71331 | 28940 ft | 451 kts | 292° |
| 2026-05-04 19:45 | 48.93022 | 11.62673 | 28943 ft | 451 kts | 292° |
| 2026-05-04 19:46 | 48.95623 | 11.54008 | 28942 ft | 450 kts | 292° |
| 2026-05-04 19:46 | 48.98217 | 11.45350 | 28944 ft | 450 kts | 291° |
| 2026-05-04 19:47 | 49.00801 | 11.36672 | 28948 ft | 450 kts | 291° |
| 2026-05-04 19:47 | 49.03384 | 11.27981 | 28950 ft | 450 kts | 291° |
| 2026-05-04 19:48 | 49.05963 | 11.19283 | 28950 ft | 450 kts | 291° |
| 2026-05-04 19:48 | 49.08529 | 11.10574 | 28956 ft | 450 kts | 291° |
| 2026-05-04 19:49 | 49.11088 | 11.01844 | 28954 ft | 451 kts | 291° |
| 2026-05-04 19:49 | 49.13648 | 10.93094 | 28980 ft | 451 kts | 291° |
| 2026-05-04 19:50 | 49.16153 | 10.84516 | 29002 ft | 451 kts | 291° |
| 2026-05-04 19:50 | 49.18709 | 10.75756 | 28483 ft | 453 kts | 292° |
| 2026-05-04 19:50 | 49.20362 | 10.71678 | 27935 ft | 451 kts | 305° |
| 2026-05-04 19:51 | 49.22474 | 10.68127 | 27432 ft | 450 kts | 310° |
| 2026-05-04 19:51 | 49.24642 | 10.64690 | 26910 ft | 447 kts | 311° |
| 2026-05-04 19:51 | 49.26763 | 10.61338 | 26395 ft | 444 kts | 310° |
| 2026-05-04 19:51 | 49.28905 | 10.57965 | 25870 ft | 440 kts | 310° |
| 2026-05-04 19:52 | 49.31027 | 10.54620 | 25324 ft | 435 kts | 311° |
| 2026-05-04 19:52 | 49.33128 | 10.51303 | 24789 ft | 431 kts | 311° |
| 2026-05-04 19:52 | 49.35206 | 10.48014 | 24225 ft | 428 kts | 310° |
| 2026-05-04 19:52 | 49.37054 | 10.44503 | 23698 ft | 420 kts | 302° |
| 2026-05-04 19:53 | 49.38700 | 10.40879 | 23259 ft | 419 kts | 302° |
| 2026-05-04 19:53 | 49.40392 | 10.37165 | 22829 ft | 417 kts | 302° |
| 2026-05-04 19:53 | 49.42031 | 10.33581 | 22409 ft | 415 kts | 302° |
| 2026-05-04 19:53 | 49.43686 | 10.29969 | 22023 ft | 412 kts | 302° |
| 2026-05-04 19:54 | 49.45328 | 10.26378 | 21597 ft | 410 kts | 302° |
| 2026-05-04 19:54 | 49.46961 | 10.22793 | 21184 ft | 408 kts | 302° |
| 2026-05-04 19:54 | 49.48577 | 10.19233 | 20771 ft | 405 kts | 302° |
| 2026-05-04 19:54 | 49.50183 | 10.15682 | 20361 ft | 403 kts | 302° |
| 2026-05-04 19:55 | 49.51775 | 10.12151 | 19953 ft | 401 kts | 302° |
| 2026-05-04 19:55 | 49.53361 | 10.08641 | 19564 ft | 398 kts | 302° |
| 2026-05-04 19:55 | 49.54936 | 10.05151 | 19135 ft | 395 kts | 302° |
| 2026-05-04 19:55 | 49.56499 | 10.01684 | 18742 ft | 393 kts | 302° |
| 2026-05-04 19:56 | 49.58052 | 9.98235 | 18340 ft | 391 kts | 302° |
| 2026-05-04 19:56 | 49.59597 | 9.94795 | 17907 ft | 389 kts | 302° |
| 2026-05-04 19:56 | 49.61132 | 9.91376 | 17521 ft | 388 kts | 302° |
| 2026-05-04 19:56 | 49.62663 | 9.87961 | 17117 ft | 387 kts | 302° |
| 2026-05-04 19:57 | 49.64188 | 9.84562 | 16722 ft | 385 kts | 302° |
| 2026-05-04 19:57 | 49.65707 | 9.81174 | 16333 ft | 382 kts | 302° |
| 2026-05-04 19:57 | 49.67211 | 9.77808 | 15933 ft | 380 kts | 302° |
| 2026-05-04 19:57 | 49.68703 | 9.74460 | 15556 ft | 377 kts | 302° |
| 2026-05-04 19:58 | 49.70183 | 9.71133 | 15172 ft | 375 kts | 302° |
| 2026-05-04 19:58 | 49.71653 | 9.67821 | 14792 ft | 373 kts | 302° |
| 2026-05-04 19:58 | 49.73116 | 9.64526 | 14415 ft | 370 kts | 302° |
| 2026-05-04 19:58 | 49.74571 | 9.61253 | 14040 ft | 368 kts | 302° |
| 2026-05-04 19:59 | 49.75986 | 9.58071 | 13659 ft | 366 kts | 302° |
| 2026-05-04 19:59 | 49.77424 | 9.54843 | 13271 ft | 364 kts | 303° |
| 2026-05-04 19:59 | 49.79161 | 9.52101 | 12912 ft | 368 kts | 322° |
| 2026-05-04 19:59 | 49.81480 | 9.50216 | 12549 ft | 370 kts | 333° |
| 2026-05-04 20:00 | 49.83828 | 9.48616 | 12188 ft | 368 kts | 334° |
| 2026-05-04 20:00 | 49.86166 | 9.47035 | 11830 ft | 365 kts | 334° |
| 2026-05-04 20:00 | 49.88480 | 9.45476 | 11342 ft | 359 kts | 334° |
| 2026-05-04 20:00 | 49.90723 | 9.43974 | 11187 ft | 343 kts | 334° |
| 2026-05-04 20:01 | 49.92892 | 9.42534 | 10817 ft | 337 kts | 334° |
| 2026-05-04 20:01 | 49.95037 | 9.41103 | 10369 ft | 334 kts | 334° |
| 2026-05-04 20:01 | 49.97170 | 9.39670 | 9569 ft | 340 kts | 334° |
| 2026-05-04 20:01 | 49.99363 | 9.38182 | 8748 ft | 345 kts | 334° |
| 2026-05-04 20:02 | 50.01530 | 9.36701 | 8110 ft | 343 kts | 334° |
| 2026-05-04 20:02 | 50.03676 | 9.35225 | 7897 ft | 329 kts | 334° |
| 2026-05-04 20:02 | 50.05696 | 9.33834 | 7773 ft | 314 kts | 334° |
| 2026-05-04 20:02 | 50.07547 | 9.32245 | 7644 ft | 296 kts | 317° |
| 2026-05-04 20:03 | 50.08802 | 9.29827 | 7322 ft | 286 kts | 297° |
| 2026-05-04 20:03 | 50.09728 | 9.27100 | 6818 ft | 287 kts | 294° |
| 2026-05-04 20:03 | 50.10626 | 9.24315 | 6366 ft | 286 kts | 294° |
| 2026-05-04 20:03 | 50.11502 | 9.21552 | 6021 ft | 280 kts | 294° |
| 2026-05-04 20:04 | 50.12334 | 9.18896 | 5709 ft | 274 kts | 294° |
| 2026-05-04 20:04 | 50.13156 | 9.16238 | 5310 ft | 271 kts | 294° |
| 2026-05-04 20:04 | 50.13971 | 9.13603 | 5037 ft | 269 kts | 294° |
| 2026-05-04 20:04 | 50.14778 | 9.10971 | 5018 ft | 270 kts | 294° |
| 2026-05-04 20:05 | 50.15447 | 9.08311 | 5022 ft | 269 kts | 280° |
| 2026-05-04 20:05 | 50.15632 | 9.06348 | 5025 ft | 269 kts | 275° |
| 2026-05-04 20:05 | 50.15831 | 9.03450 | 5026 ft | 269 kts | 274° |
| 2026-05-04 20:05 | 50.15720 | 9.00580 | 5029 ft | 265 kts | 253° |
| 2026-05-04 20:06 | 50.15125 | 8.97962 | 5023 ft | 246 kts | 248° |
| 2026-05-04 20:06 | 50.14563 | 8.95580 | 5028 ft | 235 kts | 248° |
| 2026-05-04 20:06 | 50.14009 | 8.93222 | 5030 ft | 234 kts | 248° |
| 2026-05-04 20:06 | 50.13465 | 8.90900 | 5025 ft | 221 kts | 248° |
| 2026-05-04 20:07 | 50.12956 | 8.88731 | 5023 ft | 206 kts | 248° |
| 2026-05-04 20:07 | 50.12479 | 8.86701 | 4994 ft | 195 kts | 248° |
| 2026-05-04 20:07 | 50.12016 | 8.84736 | 4808 ft | 192 kts | 248° |
| 2026-05-04 20:07 | 50.11555 | 8.82779 | 4555 ft | 193 kts | 248° |
| 2026-05-04 20:08 | 50.11092 | 8.80814 | 4281 ft | 194 kts | 249° |
| 2026-05-04 20:08 | 50.10626 | 8.78838 | 4004 ft | 195 kts | 249° |
| 2026-05-04 20:08 | 50.10155 | 8.76844 | 3729 ft | 197 kts | 249° |
| 2026-05-04 20:08 | 50.09680 | 8.74835 | 3451 ft | 198 kts | 249° |
| 2026-05-04 20:09 | 50.09207 | 8.72836 | 3208 ft | 193 kts | 250° |
| 2026-05-04 20:09 | 50.08749 | 8.70902 | 2905 ft | 189 kts | 250° |
| 2026-05-04 20:09 | 50.08296 | 8.68988 | 2625 ft | 188 kts | 250° |
| 2026-05-04 20:09 | 50.07840 | 8.67064 | 2372 ft | 195 kts | 250° |
| 2026-05-04 20:10 | 50.07381 | 8.65134 | 2087 ft | 185 kts | 251° |
| 2026-05-04 20:10 | 50.06954 | 8.63336 | 1843 ft | 167 kts | 251° |
| 2026-05-04 20:10 | 50.06574 | 8.61742 | 1605 ft | 148 kts | 251° |
| 2026-05-04 20:10 | 50.06232 | 8.60306 | 1400 ft | 136 kts | 251° |
| 2026-05-04 20:11 | 50.05910 | 8.58961 | 1190 ft | 132 kts | 251° |
| 2026-05-04 20:11 | 50.05590 | 8.57644 | 997 ft | 128 kts | 251° |
| 2026-05-04 20:11 | 50.05287 | 8.56346 | 827 ft | 128 kts | 251° |
| 2026-05-04 20:11 | 50.04983 | 8.55070 | 653 ft | 127 kts | 251° |
| 2026-05-04 20:12 | 50.04686 | 8.53804 | 469 ft | 126 kts | 251° |
| 2026-05-04 20:12 | 50.04376 | 8.52542 | 353 ft | 113 kts | 248° |
| 2026-05-04 20:12 | 50.04163 | 8.51622 | 332 ft | 68 kts | 249° |
| 2026-05-04 20:12 | 50.04042 | 8.51152 | 327 ft | 39 kts | 242° |
| 2026-05-04 20:13 | 50.03897 | 8.50908 | 325 ft | 17 kts | 219° |
| 2026-05-04 20:13 | 50.03795 | 8.50857 | 330 ft | 17 kts | 143° |
| 2026-05-04 20:13 | 50.03750 | 8.50981 | 333 ft | 0 kts | 117° |
| 2026-05-04 20:13 | 50.03749 | 8.50984 | 333 ft | 3 kts | 117° |
| 2026-05-04 20:14 | 50.03733 | 8.51033 | 336 ft | 4 kts | 116° |
| 2026-05-04 20:14 | 50.03720 | 8.51072 | 340 ft | 5 kts | 116° |
| 2026-05-04 20:14 | 50.03684 | 8.51187 | 348 ft | 18 kts | 116° |
| 2026-05-04 20:14 | 50.03632 | 8.51354 | 353 ft | 16 kts | 116° |
| 2026-05-04 20:15 | 50.03579 | 8.51520 | 356 ft | 18 kts | 116° |
| 2026-05-04 20:15 | 50.03522 | 8.51702 | 354 ft | 19 kts | 116° |
| 2026-05-04 20:15 | 50.03520 | 8.51916 | 350 ft | 22 kts | 83° |
| 2026-05-04 20:15 | 50.03538 | 8.52147 | 345 ft | 9 kts | 83° |
| 2026-05-04 20:16 | 50.03543 | 8.52206 | 342 ft | 0 kts | 83° |